Flight Track Log - Related Links

Times and Time Zones

All times are in EDT time to prevent confusion due to time zone crossing. See the UPS558 flight status page for this flight to view local times or setup timezone preferences in your user account.

Time Position Orientation Groundspeed Altitude Reporting Facility
EDT Latitude Longitude Course Direction KTS MPH feet Rate Location/Type
Tue 03:20:30 AM 39.8667 -75.2667 237° Southwest 159 183 700  Level Philadelphia TRACON
Tue 03:21:54 AM 39.8167 -75.3667 237° Southwest 236 272 3,500 1,917 Climbing Philadelphia TRACON
Tue 03:22:54 AM 39.8667 -75.4167 322° Northwest 253 291 5,300 2,200 Climbing Philadelphia TRACON
Tue 03:23:54 AM 39.9333 -75.4500 339° North 262 302 7,900 2,327 Climbing Philadelphia TRACON
Tue 03:24:32 AM 39.9617 -75.4642 339° North 267 307 9,100 1,794 Climbing New York Center
Tue 03:25:31 AM 40.0458 -75.4972 343° North 290 334 10,800 1,385 Climbing New York Center
Tue 03:26:29 AM 40.1261 -75.5269 344° North 342 394 11,800 1,650 Climbing New York Center
Tue 03:27:31 AM 40.2322 -75.5806 339° North 364 419 14,100 2,050 Climbing New York Center
Tue 03:28:29 AM 40.3011 -75.6778 313° West 364 419 15,900 1,800 Climbing New York Center
Tue 03:29:31 AM 40.3694 -75.7864 310° West 375 432 17,700 1,686 Climbing New York Center
Tue 03:30:30 AM 40.4417 -75.9006 310° West 392 451 19,300 1,729 Climbing New York Center
Tue 03:31:29 AM 40.4664 -76.0497 282° West 404 465 21,100 1,714 Climbing New York Center
Tue 03:32:29 AM 40.4906 -76.2072 281° West 413 475 22,700 1,475 Climbing New York Center
Tue 03:33:31 AM 40.5144 -76.3675 281° West 435 501 24,100 1,450 Climbing New York Center
Tue 03:34:29 AM 40.5400 -76.5306 282° West 447 514 25,600 1,400 Climbing New York Center
Tue 03:35:31 AM 40.5756 -76.6950 286° West 463 533 26,900 1,268 Climbing New York Center
Tue 03:36:32 AM 40.6211 -76.8631 290° West 475 547 28,200 1,339 Climbing New York Center
Tue 03:37:32 AM 40.6667 -77.0283 290° West 475 547 29,600 1,538 Climbing New York Center
Tue 03:38:29 AM 40.7097 -77.1967 289° West 480 552 31,200 1,210 Climbing New York Center
Tue 03:39:31 AM 40.7531 -77.3597 289° West 480 552 32,000 393 Climbing New York Center
Tue 03:40:31 AM 40.7958 -77.5228 289° West 475 547 32,000  Level New York Center
Tue 03:42:34 AM 40.8808 -77.8533 289° West 478 550 32,000  Level Cleveland Center
Tue 03:43:34 AM 40.9183 -78.0219 286° West 484 557 32,000  Level Cleveland Center
Tue 03:44:34 AM 40.9408 -78.1972 280° West 484 557 32,000  Level Cleveland Center
Tue 03:45:34 AM 40.9675 -78.3858 281° West 484 557 32,000  Level Cleveland Center
Tue 03:46:34 AM 40.9872 -78.5586 279° West 484 557 32,000  Level Cleveland Center
Tue 03:47:34 AM 41.0050 -78.7342 278° West 484 557 32,000  Level Cleveland Center
Tue 03:48:34 AM 41.0222 -78.9069 278° West 484 557 32,000  Level Cleveland Center
Tue 03:49:34 AM 41.0433 -79.0828 279° West 479 551 32,000  Level Cleveland Center
Tue 03:50:34 AM 41.0600 -79.2531 277° West 479 551 32,000  Level Cleveland Center
Tue 03:51:34 AM 41.0786 -79.4233 278° West 479 551 32,000  Level Cleveland Center
Tue 03:52:34 AM 41.0947 -79.5994 277° West 479 551 32,000  Level Cleveland Center
Tue 03:53:34 AM 41.1108 -79.7703 277° West 479 551 32,000  Level Cleveland Center
Tue 03:54:34 AM 41.1264 -79.9408 277° West 479 551 32,000  Level Cleveland Center
Tue 03:55:34 AM 41.1419 -80.1144 277° West 479 551 32,000  Level Cleveland Center
Tue 03:56:34 AM 41.1592 -80.2853 278° West 479 551 32,000  Level Cleveland Center
Tue 03:57:34 AM 41.1742 -80.4589 277° West 479 551 32,000  Level Cleveland Center
Tue 03:58:34 AM 41.1886 -80.6272 277° West 479 551 32,000  Level Cleveland Center
Tue 03:59:34 AM 41.2053 -80.8067 277° West 479 551 32,000  Level Cleveland Center
Tue 04:00:34 AM 41.2192 -80.9778 276° West 479 551 32,000  Level Cleveland Center
Tue 04:01:34 AM 41.2353 -81.1492 277° West 479 551 32,000  Level Cleveland Center
Tue 04:02:34 AM 41.2508 -81.3261 277° West 479 551 32,000  Level Cleveland Center
Tue 04:03:34 AM 41.2664 -81.4947 277° West 479 551 32,000  Level Cleveland Center
Tue 04:04:34 AM 41.2814 -81.6689 277° West 479 551 32,000  Level Cleveland Center
Tue 04:05:34 AM 41.2942 -81.8433 276° West 479 551 32,000  Level Cleveland Center
Tue 04:06:34 AM 41.3047 -82.0206 275° West 479 551 32,000  Level Cleveland Center
Tue 04:07:34 AM 41.3169 -82.2031 275° West 485 558 32,000  Level Cleveland Center
Tue 04:08:34 AM 41.3289 -82.3778 275° West 493 567 32,000  Level Cleveland Center
Tue 04:09:34 AM 41.3406 -82.5522 275° West 483 556 32,000  Level Cleveland Center
Tue 04:10:34 AM 41.3539 -82.7325 276° West 483 556 32,000  Level Cleveland Center
Tue 04:11:34 AM 41.3653 -82.9044 275° West 483 556 32,000  Level Cleveland Center
Tue 04:12:34 AM 41.3761 -83.0792 275° West 483 556 32,000  Level Cleveland Center
Tue 04:13:34 AM 41.3850 -83.2372 274° West 483 556 32,000  Level Cleveland Center
Tue 04:14:34 AM 41.3953 -83.4178 274° West 483 556 32,000  Level Cleveland Center
Tue 04:15:34 AM 41.4056 -83.5925 275° West 483 556 32,000  Level Cleveland Center
Tue 04:16:34 AM 41.4153 -83.7703 274° West 483 556 32,000  Level Cleveland Center
Tue 04:17:36 AM 41.4306 -83.9669 276° West 482 555 32,000  Level Chicago Center
Tue 04:18:36 AM 41.4403 -84.1447 274° West 481 554 32,000  Level Chicago Center
Tue 04:19:37 AM 41.4494 -84.3239 274° West 484 557 32,000  Level Chicago Center
Tue 04:20:37 AM 41.4594 -84.5014 274° West 482 555 32,000  Level Chicago Center
Tue 04:21:37 AM 41.5081 -84.6647 292° West 491 565 32,000  Level Chicago Center
Tue 04:22:38 AM 41.5864 -84.8094 306° West 483 556 32,000  Level Chicago Center
Tue 04:23:38 AM 41.6661 -84.9508 307° West 481 554 32,000  Level Chicago Center
Tue 04:24:39 AM 41.7450 -85.0947 306° West 484 557 32,000  Level Chicago Center
Tue 04:25:39 AM 41.8233 -85.2361 307° West 482 555 32,000  Level Chicago Center
Tue 04:26:39 AM 41.8936 -85.3842 303° West 480 552 32,000  Level Chicago Center
Tue 04:27:40 AM 41.9586 -85.5375 300° West 479 551 32,000  Level Chicago Center
Tue 04:28:40 AM 42.0306 -85.7086 300° West 479 551 32,000  Level Chicago Center
Tue 04:29:41 AM 42.0972 -85.8636 300° West 479 551 32,000  Level Chicago Center
Tue 04:30:41 AM 42.1556 -85.9989 300° West 474 545 32,000  Level Chicago Center
Tue 04:31:42 AM 42.2336 -86.1844 300° West 475 547 32,000  Level Chicago Center
Tue 04:32:42 AM 42.2947 -86.3278 300° West 475 547 32,000  Level Chicago Center
Tue 04:33:42 AM 42.3592 -86.4831 299° West 472 543 32,000  Level Chicago Center
Tue 04:34:43 AM 42.4253 -86.6389 300° West 474 545 32,000  Level Chicago Center
Tue 04:35:43 AM 42.4922 -86.7956 300° West 480 552 32,000  Level Chicago Center
Tue 04:36:44 AM 42.5564 -86.9500 299° West 476 548 32,000  Level Chicago Center
Tue 04:37:44 AM 42.6186 -87.1075 298° West 465 535 32,000  Level Chicago Center
Tue 04:38:45 AM 42.6817 -87.2653 299° West 472 543 32,000  Level Chicago Center
Tue 04:39:45 AM 42.7419 -87.4156 299° West 476 548 32,000  Level Chicago Center
Tue 04:40:45 AM 42.8164 -87.6008 299° West 476 548 32,000  Level Chicago Center
Tue 04:41:46 AM 42.8806 -87.7597 299° West 477 549 32,000  Level Chicago Center
Tue 04:42:46 AM 42.9450 -87.9172 299° West 474 545 32,000  Level Chicago Center
Tue 04:43:47 AM 43.0097 -88.0761 299° West 476 548 32,000  Level Chicago Center
Tue 04:44:47 AM 43.0725 -88.2347 298° West 472 543 32,000  Level Chicago Center
Tue 04:45:48 AM 43.1369 -88.3936 299° West 473 544 32,000  Level Chicago Center
Tue 04:46:48 AM 43.2014 -88.5533 299° West 472 543 32,000  Level Chicago Center
Tue 04:47:48 AM 43.2547 -88.6878 299° West 475 547 32,000  Level Chicago Center
Tue 04:48:49 AM 43.3175 -88.8500 298° West 475 547 32,000  Level Chicago Center
Tue 04:49:49 AM 43.3803 -89.0086 299° West 470 541 32,000  Level Chicago Center
Tue 04:50:50 AM 43.4411 -89.1675 298° West 469 540 32,000  Level Chicago Center
Tue 04:51:50 AM 43.5014 -89.3261 298° West 467 537 32,000  Level Chicago Center
Tue 04:52:50 AM 43.5611 -89.4858 297° West 468 539 32,000  Level Chicago Center
Tue 04:53:51 AM 43.6200 -89.6461 297° West 468 539 32,000  Level Chicago Center
Tue 04:54:51 AM 43.6808 -89.8047 298° West 467 537 32,000  Level Chicago Center
Tue 04:55:52 AM 43.7419 -89.9650 298° West 470 541 32,000  Level Chicago Center
Tue 04:56:52 AM 43.8006 -90.1261 297° West 469 540 32,000  Level Chicago Center
Tue 04:57:53 AM 43.8619 -90.2917 297° West 470 541 32,000  Level Chicago Center
Tue 04:58:55 AM 43.9192 -90.4517 296° West 469 540 32,000  Level Chicago Center
Tue 05:00:00 AM 43.9883 -90.6414 297° West 468 539 32,000  Level Minneapolis Center
Tue 05:01:01 AM 44.0467 -90.8000 297° West 467 537 32,000  Level Minneapolis Center
Tue 05:02:01 AM 44.1036 -90.9589 297° West 465 535 32,000 -397 Level Minneapolis Center
Tue 05:03:02 AM 44.1603 -91.1183 296° West 465 535 31,200 -1,721 Descending Minneapolis Center
Tue 05:04:03 AM 44.2217 -91.2919 296° West 463 533 28,500 -2,579 Descending Minneapolis Center
Tue 05:05:03 AM 44.2764 -91.4486 296° West 456 525 26,000 -2,430 Descending Minneapolis Center
Tue 05:06:04 AM 44.3306 -91.5992 297° West 443 510 23,600 -2,380 Descending Minneapolis Center
Tue 05:07:04 AM 44.3808 -91.7478 295° West 429 494 21,200 -2,331 Descending Minneapolis Center
Tue 05:08:05 AM 44.4303 -91.8903 296° West 414 476 18,900 -2,231 Descending Minneapolis Center
Tue 05:09:05 AM 44.4783 -92.0292 296° West 401 461 16,700 -2,182 Descending Minneapolis Center
Tue 05:10:06 AM 44.5261 -92.1647 296° West 391 450 14,500 -2,182 Descending Minneapolis Center
Tue 05:11:06 AM 44.5708 -92.2956 296° West 377 434 12,300 -2,033 Descending Minneapolis Center
Tue 05:12:07 AM 44.6156 -92.4208 297° West 364 419 10,400 -1,131 Descending Minneapolis Center
Tue 05:13:08 AM 44.6603 -92.5375 298° West 340 391 10,000 -347 Descending Minneapolis Center
Tue 05:14:08 AM 44.6908 -92.6458 292° West 295 339 9,700 -843 Descending Minneapolis Center
Tue 05:15:09 AM 44.7164 -92.7500 289° West 282 325 8,300 -843 Descending Minneapolis Center
Tue 05:16:09 AM 44.7397 -92.8536 288° West 280 322 8,000 -149 Descending Minneapolis Center
Tue 05:17:10 AM 44.7681 -92.9772 288° West 278 320 8,000  Level Minneapolis Center
Tue 05:18:10 AM 44.7914 -93.0806 288° West 280 322 8,000 -99 Level Minneapolis Center
Tue 05:19:11 AM 44.8150 -93.1822 288° West 281 323 7,800 -744 Descending Minneapolis Center
Tue 05:20:11 AM 44.8403 -93.2822 290° West 279 321 6,500 -1,190 Descending Minneapolis Center
Tue 05:21:12 AM 44.8644 -93.3822 289° West 274 315 5,400 -942 Descending Minneapolis Center
Tue 05:22:12 AM 44.8878 -93.4783 289° West 261 300 4,600 -694 Descending Minneapolis Center
Tue 05:23:13 AM 44.9111 -93.5619 292° West 232 267 4,000 -298 Descending Minneapolis Center
Tue 05:24:13 AM 44.9633 -93.5381 18° North 230 265 4,000  Level Minneapolis Center
Tue 05:25:14 AM 44.9775 -93.4600 76° East 203 234 4,000 -248 Level Minneapolis Center
Tue 05:26:14 AM 44.9661 -93.3914 103° East 177 204 3,500 -694 Descending Minneapolis Center
Tue 05:27:15 AM 44.9428 -93.3358 121° Southeast 165 190 2,600 -793 Descending Minneapolis Center
Tue 05:28:15 AM 44.9225 -93.2889 121° Southeast 144 166 1,900 -694 Descending Minneapolis Center
Tue 05:29:16 AM 44.9039 -93.2450 121° Southeast 132 152 1,200 -689 Descending Minneapolis Center
Tue 05:31:00 AM 44.8820 -93.2218 101° East  Level Estimated
Tue 05:38:00 AM 44.8820 -93.2218 101° East  Level Estimated

Login

Don't have an account? Register now (free) for customized features, flight alerts, and more!